sensor_id;sensor_type;location;lat;lon;timestamp;temperature;humidity
68842;SHT35;55849;48.482;2.332;2024-03-07T00:00:39;7.15;70.26
68842;SHT35;55849;48.482;2.332;2024-03-07T00:03:42;7.13;69.86
68842;SHT35;55849;48.482;2.332;2024-03-07T00:06:44;7.09;69.92
68842;SHT35;55849;48.482;2.332;2024-03-07T00:09:46;7.05;69.67
68842;SHT35;55849;48.482;2.332;2024-03-07T00:12:49;7.02;69.52
68842;SHT35;55849;48.482;2.332;2024-03-07T00:15:50;6.99;70.62
68842;SHT35;55849;48.482;2.332;2024-03-07T00:18:53;6.98;70.66
68842;SHT35;55849;48.482;2.332;2024-03-07T00:21:56;6.98;70.36
68842;SHT35;55849;48.482;2.332;2024-03-07T00:24:58;6.95;69.93
68842;SHT35;55849;48.482;2.332;2024-03-07T00:28:01;6.89;69.90
68842;SHT35;55849;48.482;2.332;2024-03-07T00:31:03;6.91;70.46
68842;SHT35;55849;48.482;2.332;2024-03-07T00:34:07;6.87;70.62
68842;SHT35;55849;48.482;2.332;2024-03-07T00:37:08;6.85;69.79
68842;SHT35;55849;48.482;2.332;2024-03-07T00:40:11;6.81;69.49
68842;SHT35;55849;48.482;2.332;2024-03-07T00:43:14;6.77;69.52
68842;SHT35;55849;48.482;2.332;2024-03-07T00:46:15;6.75;69.24
68842;SHT35;55849;48.482;2.332;2024-03-07T00:49:17;6.71;69.27
68842;SHT35;55849;48.482;2.332;2024-03-07T00:52:18;6.70;70.35
68842;SHT35;55849;48.482;2.332;2024-03-07T00:55:20;6.67;69.57
68842;SHT35;55849;48.482;2.332;2024-03-07T00:58:24;6.64;69.86
68842;SHT35;55849;48.482;2.332;2024-03-07T01:01:25;6.64;70.01
68842;SHT35;55849;48.482;2.332;2024-03-07T01:04:27;6.61;70.36
68842;SHT35;55849;48.482;2.332;2024-03-07T01:07:31;6.61;70.03
68842;SHT35;55849;48.482;2.332;2024-03-07T01:10:32;6.60;70.52
68842;SHT35;55849;48.482;2.332;2024-03-07T01:13:35;6.58;70.01
68842;SHT35;55849;48.482;2.332;2024-03-07T01:16:37;6.56;69.60
68842;SHT35;55849;48.482;2.332;2024-03-07T01:19:39;6.56;70.26
68842;SHT35;55849;48.482;2.332;2024-03-07T01:22:40;6.51;70.08
68842;SHT35;55849;48.482;2.332;2024-03-07T01:25:42;6.51;70.04
68842;SHT35;55849;48.482;2.332;2024-03-07T01:28:45;6.49;70.80
68842;SHT35;55849;48.482;2.332;2024-03-07T01:31:46;6.50;69.84
68842;SHT35;55849;48.482;2.332;2024-03-07T01:34:49;6.46;70.33
68842;SHT35;55849;48.482;2.332;2024-03-07T01:37:51;6.43;70.29
68842;SHT35;55849;48.482;2.332;2024-03-07T01:40:52;6.43;70.43
68842;SHT35;55849;48.482;2.332;2024-03-07T01:43:56;6.44;70.15
68842;SHT35;55849;48.482;2.332;2024-03-07T01:46:58;6.40;70.11
68842;SHT35;55849;48.482;2.332;2024-03-07T01:50:03;6.39;70.80
68842;SHT35;55849;48.482;2.332;2024-03-07T01:53:06;6.37;70.27
68842;SHT35;55849;48.482;2.332;2024-03-07T01:56:11;6.37;69.97
68842;SHT35;55849;48.482;2.332;2024-03-07T01:59:15;6.34;70.38
68842;SHT35;55849;48.482;2.332;2024-03-07T02:02:16;6.33;70.53
68842;SHT35;55849;48.482;2.332;2024-03-07T02:05:19;6.33;70.61
68842;SHT35;55849;48.482;2.332;2024-03-07T02:08:21;6.30;70.48
68842;SHT35;55849;48.482;2.332;2024-03-07T02:11:22;6.29;70.60
68842;SHT35;55849;48.482;2.332;2024-03-07T02:14:26;6.28;70.68
68842;SHT35;55849;48.482;2.332;2024-03-07T02:17:29;6.29;70.85
68842;SHT35;55849;48.482;2.332;2024-03-07T02:20:31;6.28;70.81
68842;SHT35;55849;48.482;2.332;2024-03-07T02:23:34;6.25;70.43
68842;SHT35;55849;48.482;2.332;2024-03-07T02:26:37;6.26;71.27
68842;SHT35;55849;48.482;2.332;2024-03-07T02:29:39;6.26;70.36
68842;SHT35;55849;48.482;2.332;2024-03-07T02:32:41;6.23;70.47
68842;SHT35;55849;48.482;2.332;2024-03-07T02:35:43;6.21;70.37
68842;SHT35;55849;48.482;2.332;2024-03-07T02:38:45;6.21;70.29
68842;SHT35;55849;48.482;2.332;2024-03-07T02:41:47;6.19;70.35
68842;SHT35;55849;48.482;2.332;2024-03-07T02:44:50;6.16;70.57
68842;SHT35;55849;48.482;2.332;2024-03-07T02:47:53;6.19;70.19
68842;SHT35;55849;48.482;2.332;2024-03-07T02:50:55;6.18;70.41
68842;SHT35;55849;48.482;2.332;2024-03-07T02:53:58;6.16;70.44
68842;SHT35;55849;48.482;2.332;2024-03-07T02:56:59;6.15;70.29
68842;SHT35;55849;48.482;2.332;2024-03-07T03:00:01;6.11;69.76
68842;SHT35;55849;48.482;2.332;2024-03-07T03:03:03;6.08;70.01
68842;SHT35;55849;48.482;2.332;2024-03-07T03:06:05;6.09;70.04
68842;SHT35;55849;48.482;2.332;2024-03-07T03:09:10;6.04;70.44
68842;SHT35;55849;48.482;2.332;2024-03-07T03:12:17;6.05;70.64
68842;SHT35;55849;48.482;2.332;2024-03-07T03:15:21;6.04;70.34
68842;SHT35;55849;48.482;2.332;2024-03-07T03:18:22;6.02;70.32
68842;SHT35;55849;48.482;2.332;2024-03-07T03:21:24;6.01;69.48
68842;SHT35;55849;48.482;2.332;2024-03-07T03:24:27;5.98;69.61
68842;SHT35;55849;48.482;2.332;2024-03-07T03:27:28;5.95;69.50
68842;SHT35;55849;48.482;2.332;2024-03-07T03:30:30;5.93;69.38
68842;SHT35;55849;48.482;2.332;2024-03-07T03:33:33;5.94;69.26
68842;SHT35;55849;48.482;2.332;2024-03-07T03:36:35;5.90;69.56
68842;SHT35;55849;48.482;2.332;2024-03-07T03:39:38;5.91;69.50
68842;SHT35;55849;48.482;2.332;2024-03-07T03:42:42;5.87;69.27
68842;SHT35;55849;48.482;2.332;2024-03-07T03:45:44;5.84;68.88
68842;SHT35;55849;48.482;2.332;2024-03-07T03:48:47;5.83;69.10
68842;SHT35;55849;48.482;2.332;2024-03-07T03:51:51;5.81;68.91
68842;SHT35;55849;48.482;2.332;2024-03-07T03:54:53;5.80;68.85
68842;SHT35;55849;48.482;2.332;2024-03-07T03:57:56;5.75;69.42
68842;SHT35;55849;48.482;2.332;2024-03-07T04:00:58;5.77;69.54
68842;SHT35;55849;48.482;2.332;2024-03-07T04:04:00;5.74;70.44
68842;SHT35;55849;48.482;2.332;2024-03-07T04:07:01;5.75;70.43
68842;SHT35;55849;48.482;2.332;2024-03-07T04:10:06;5.75;70.59
68842;SHT35;55849;48.482;2.332;2024-03-07T04:13:08;5.74;70.60
68842;SHT35;55849;48.482;2.332;2024-03-07T04:16:09;5.75;70.13
68842;SHT35;55849;48.482;2.332;2024-03-07T04:19:11;5.74;70.15
68842;SHT35;55849;48.482;2.332;2024-03-07T04:22:13;5.73;69.91
68842;SHT35;55849;48.482;2.332;2024-03-07T04:25:16;5.73;70.31
68842;SHT35;55849;48.482;2.332;2024-03-07T04:28:18;5.74;70.60
68842;SHT35;55849;48.482;2.332;2024-03-07T04:31:19;5.73;70.37
68842;SHT35;55849;48.482;2.332;2024-03-07T04:34:21;5.74;70.46
68842;SHT35;55849;48.482;2.332;2024-03-07T04:37:22;5.75;70.57
68842;SHT35;55849;48.482;2.332;2024-03-07T04:40:25;5.78;71.00
68842;SHT35;55849;48.482;2.332;2024-03-07T04:43:28;5.77;70.55
68842;SHT35;55849;48.482;2.332;2024-03-07T04:46:29;5.77;71.16
68842;SHT35;55849;48.482;2.332;2024-03-07T04:49:32;5.78;70.77
68842;SHT35;55849;48.482;2.332;2024-03-07T04:52:34;5.77;70.95
68842;SHT35;55849;48.482;2.332;2024-03-07T04:55:37;5.78;71.03
68842;SHT35;55849;48.482;2.332;2024-03-07T04:58:38;5.80;71.03
68842;SHT35;55849;48.482;2.332;2024-03-07T05:01:40;5.80;71.26
68842;SHT35;55849;48.482;2.332;2024-03-07T05:04:42;5.80;70.89
68842;SHT35;55849;48.482;2.332;2024-03-07T05:07:43;5.80;70.86
68842;SHT35;55849;48.482;2.332;2024-03-07T05:10:46;5.77;70.61
68842;SHT35;55849;48.482;2.332;2024-03-07T05:13:48;5.78;70.48
68842;SHT35;55849;48.482;2.332;2024-03-07T05:16:49;5.80;70.86
68842;SHT35;55849;48.482;2.332;2024-03-07T05:20:06;5.75;70.43
68842;SHT35;55849;48.482;2.332;2024-03-07T05:23:10;5.73;70.48
68842;SHT35;55849;48.482;2.332;2024-03-07T05:26:13;5.67;70.26
68842;SHT35;55849;48.482;2.332;2024-03-07T05:29:15;5.69;70.44
68842;SHT35;55849;48.482;2.332;2024-03-07T05:32:20;5.70;70.36
68842;SHT35;55849;48.482;2.332;2024-03-07T05:35:22;5.67;69.59
68842;SHT35;55849;48.482;2.332;2024-03-07T05:38:24;5.64;69.97
68842;SHT35;55849;48.482;2.332;2024-03-07T05:41:30;5.63;69.68
68842;SHT35;55849;48.482;2.332;2024-03-07T05:44:31;5.62;69.77
68842;SHT35;55849;48.482;2.332;2024-03-07T05:47:33;5.59;69.35
68842;SHT35;55849;48.482;2.332;2024-03-07T05:50:35;5.60;69.67
68842;SHT35;55849;48.482;2.332;2024-03-07T05:53:36;5.59;69.71
68842;SHT35;55849;48.482;2.332;2024-03-07T05:56:40;5.53;69.77
68842;SHT35;55849;48.482;2.332;2024-03-07T05:59:41;5.50;69.85
68842;SHT35;55849;48.482;2.332;2024-03-07T06:02:43;5.52;69.56
68842;SHT35;55849;48.482;2.332;2024-03-07T06:05:45;5.49;69.61
68842;SHT35;55849;48.482;2.332;2024-03-07T06:08:48;5.46;69.54
68842;SHT35;55849;48.482;2.332;2024-03-07T06:11:51;5.47;70.11
68842;SHT35;55849;48.482;2.332;2024-03-07T06:14:53;5.46;69.97
68842;SHT35;55849;48.482;2.332;2024-03-07T06:17:54;5.49;70.43
68842;SHT35;55849;48.482;2.332;2024-03-07T06:20:56;5.47;70.21
68842;SHT35;55849;48.482;2.332;2024-03-07T06:23:58;5.50;70.40
68842;SHT35;55849;48.482;2.332;2024-03-07T06:27:02;5.52;70.41
68842;SHT35;55849;48.482;2.332;2024-03-07T06:30:10;5.50;69.94
68842;SHT35;55849;48.482;2.332;2024-03-07T06:33:12;5.49;70.16
68842;SHT35;55849;48.482;2.332;2024-03-07T06:36:14;5.52;70.40
68842;SHT35;55849;48.482;2.332;2024-03-07T06:39:16;5.50;70.23
68842;SHT35;55849;48.482;2.332;2024-03-07T06:42:23;5.50;70.41
68842;SHT35;55849;48.482;2.332;2024-03-07T06:45:25;5.50;70.43
68842;SHT35;55849;48.482;2.332;2024-03-07T06:48:26;5.50;70.62
68842;SHT35;55849;48.482;2.332;2024-03-07T06:51:28;5.49;70.35
68842;SHT35;55849;48.482;2.332;2024-03-07T06:54:30;5.50;70.68
68842;SHT35;55849;48.482;2.332;2024-03-07T06:57:33;5.50;70.87
68842;SHT35;55849;48.482;2.332;2024-03-07T07:00:34;5.53;70.57
68842;SHT35;55849;48.482;2.332;2024-03-07T07:03:37;5.56;71.04
68842;SHT35;55849;48.482;2.332;2024-03-07T07:06:38;5.57;70.98
68842;SHT35;55849;48.482;2.332;2024-03-07T07:09:42;5.60;70.97
68842;SHT35;55849;48.482;2.332;2024-03-07T07:12:45;5.62;71.19
68842;SHT35;55849;48.482;2.332;2024-03-07T07:15:48;5.60;71.09
68842;SHT35;55849;48.482;2.332;2024-03-07T07:18:50;5.60;70.86
68842;SHT35;55849;48.482;2.332;2024-03-07T07:21:52;5.60;71.17
68842;SHT35;55849;48.482;2.332;2024-03-07T07:24:54;5.63;71.38
68842;SHT35;55849;48.482;2.332;2024-03-07T07:27:57;5.64;71.46
68842;SHT35;55849;48.482;2.332;2024-03-07T07:30:59;5.67;71.63
68842;SHT35;55849;48.482;2.332;2024-03-07T07:34:00;5.69;71.28
68842;SHT35;55849;48.482;2.332;2024-03-07T07:37:04;5.69;71.14
68842;SHT35;55849;48.482;2.332;2024-03-07T07:40:07;5.71;71.39
68842;SHT35;55849;48.482;2.332;2024-03-07T07:43:10;5.74;71.49
68842;SHT35;55849;48.482;2.332;2024-03-07T07:46:13;5.73;71.29
68842;SHT35;55849;48.482;2.332;2024-03-07T07:49:16;5.77;71.42
68842;SHT35;55849;48.482;2.332;2024-03-07T07:52:17;5.74;71.37
68842;SHT35;55849;48.482;2.332;2024-03-07T07:55:20;5.78;71.45
68842;SHT35;55849;48.482;2.332;2024-03-07T07:58:23;5.80;71.41
68842;SHT35;55849;48.482;2.332;2024-03-07T08:01:25;5.83;71.41
68842;SHT35;55849;48.482;2.332;2024-03-07T08:04:27;5.81;71.90
68842;SHT35;55849;48.482;2.332;2024-03-07T08:07:29;5.86;71.87
68842;SHT35;55849;48.482;2.332;2024-03-07T08:10:31;5.87;72.09
68842;SHT35;55849;48.482;2.332;2024-03-07T08:13:34;5.90;72.10
68842;SHT35;55849;48.482;2.332;2024-03-07T08:16:36;5.91;72.15
68842;SHT35;55849;48.482;2.332;2024-03-07T08:19:38;5.93;72.51
68842;SHT35;55849;48.482;2.332;2024-03-07T08:22:41;5.94;72.30
68842;SHT35;55849;48.482;2.332;2024-03-07T08:25:42;5.99;72.60
68842;SHT35;55849;48.482;2.332;2024-03-07T08:28:45;6.02;72.69
68842;SHT35;55849;48.482;2.332;2024-03-07T08:31:47;6.04;72.80
68842;SHT35;55849;48.482;2.332;2024-03-07T08:34:49;6.05;72.96
68842;SHT35;55849;48.482;2.332;2024-03-07T08:37:52;6.09;73.20
68842;SHT35;55849;48.482;2.332;2024-03-07T08:40:54;6.11;73.57
68842;SHT35;55849;48.482;2.332;2024-03-07T08:43:58;6.13;73.73
68842;SHT35;55849;48.482;2.332;2024-03-07T08:47:00;6.16;74.04
68842;SHT35;55849;48.482;2.332;2024-03-07T08:50:02;6.21;74.13
68842;SHT35;55849;48.482;2.332;2024-03-07T08:53:06;6.21;74.38
68842;SHT35;55849;48.482;2.332;2024-03-07T08:56:09;6.25;74.60
68842;SHT35;55849;48.482;2.332;2024-03-07T08:59:12;6.29;74.91
68842;SHT35;55849;48.482;2.332;2024-03-07T09:02:17;6.32;74.89
68842;SHT35;55849;48.482;2.332;2024-03-07T09:05:19;6.37;75.06
68842;SHT35;55849;48.482;2.332;2024-03-07T09:08:22;6.40;75.22
68842;SHT35;55849;48.482;2.332;2024-03-07T09:11:24;6.46;75.43
68842;SHT35;55849;48.482;2.332;2024-03-07T09:14:27;6.49;75.52
68842;SHT35;55849;48.482;2.332;2024-03-07T09:17:28;6.56;75.69
68842;SHT35;55849;48.482;2.332;2024-03-07T09:20:30;6.60;76.02
68842;SHT35;55849;48.482;2.332;2024-03-07T09:23:32;6.67;76.37
68842;SHT35;55849;48.482;2.332;2024-03-07T09:26:33;6.73;76.13
68842;SHT35;55849;48.482;2.332;2024-03-07T09:29:37;6.80;76.52
68842;SHT35;55849;48.482;2.332;2024-03-07T09:32:39;6.87;76.34
68842;SHT35;55849;48.482;2.332;2024-03-07T09:35:40;6.93;76.77
68842;SHT35;55849;48.482;2.332;2024-03-07T09:38:42;7.02;77.04
68842;SHT35;55849;48.482;2.332;2024-03-07T09:41:44;7.08;77.00
68842;SHT35;55849;48.482;2.332;2024-03-07T09:44:48;7.16;77.02
68842;SHT35;55849;48.482;2.332;2024-03-07T09:47:51;7.22;77.19
68842;SHT35;55849;48.482;2.332;2024-03-07T09:50:55;7.30;77.25
68842;SHT35;55849;48.482;2.332;2024-03-07T09:53:59;7.37;77.11
68842;SHT35;55849;48.482;2.332;2024-03-07T09:57:02;7.43;77.05
68842;SHT35;55849;48.482;2.332;2024-03-07T10:00:08;7.52;77.32
68842;SHT35;55849;48.482;2.332;2024-03-07T10:03:20;7.58;77.45
68842;SHT35;55849;48.482;2.332;2024-03-07T10:06:22;7.67;77.65
68842;SHT35;55849;48.482;2.332;2024-03-07T10:09:24;7.74;77.54
68842;SHT35;55849;48.482;2.332;2024-03-07T10:12:26;7.81;77.63
68842;SHT35;55849;48.482;2.332;2024-03-07T10:15:30;7.86;77.59
68842;SHT35;55849;48.482;2.332;2024-03-07T10:18:32;7.95;77.78
68842;SHT35;55849;48.482;2.332;2024-03-07T10:21:34;8.03;78.12
68842;SHT35;55849;48.482;2.332;2024-03-07T10:24:37;8.16;77.66
68842;SHT35;55849;48.482;2.332;2024-03-07T10:27:38;8.24;77.66
68842;SHT35;55849;48.482;2.332;2024-03-07T10:30:42;8.36;77.42
68842;SHT35;55849;48.482;2.332;2024-03-07T10:33:45;8.42;77.69
68842;SHT35;55849;48.482;2.332;2024-03-07T10:36:47;8.52;77.78
68842;SHT35;55849;48.482;2.332;2024-03-07T10:39:49;8.64;77.54
68842;SHT35;55849;48.482;2.332;2024-03-07T10:42:56;8.71;77.45
68842;SHT35;55849;48.482;2.332;2024-03-07T10:46:05;8.80;77.72
68842;SHT35;55849;48.482;2.332;2024-03-07T10:49:11;8.90;77.22
68842;SHT35;55849;48.482;2.332;2024-03-07T10:52:23;8.99;78.01
68842;SHT35;55849;48.482;2.332;2024-03-07T10:55:34;9.08;77.60
68842;SHT35;55849;48.482;2.332;2024-03-07T10:58:44;9.20;77.59
68842;SHT35;55849;48.482;2.332;2024-03-07T11:02:09;9.31;77.01
68842;SHT35;55849;48.482;2.332;2024-03-07T11:05:17;9.38;77.55
68842;SHT35;55849;48.482;2.332;2024-03-07T11:08:19;9.46;77.41
68842;SHT35;55849;48.482;2.332;2024-03-07T11:11:21;9.56;77.48
68842;SHT35;55849;48.482;2.332;2024-03-07T11:14:25;9.65;77.71
68842;SHT35;55849;48.482;2.332;2024-03-07T11:17:29;9.77;77.31
68842;SHT35;55849;48.482;2.332;2024-03-07T11:20:35;9.89;77.50
68842;SHT35;55849;48.482;2.332;2024-03-07T11:23:36;9.95;77.43
68842;SHT35;55849;48.482;2.332;2024-03-07T11:26:41;10.10;76.55
68842;SHT35;55849;48.482;2.332;2024-03-07T11:29:52;10.19;76.70
68842;SHT35;55849;48.482;2.332;2024-03-07T11:32:55;10.29;76.09
68842;SHT35;55849;48.482;2.332;2024-03-07T11:35:58;10.41;76.06
68842;SHT35;55849;48.482;2.332;2024-03-07T11:39:01;10.52;75.14
68842;SHT35;55849;48.482;2.332;2024-03-07T11:42:24;10.63;75.34
68842;SHT35;55849;48.482;2.332;2024-03-07T11:45:27;10.73;75.33
68842;SHT35;55849;48.482;2.332;2024-03-07T11:48:31;10.85;75.27
68842;SHT35;55849;48.482;2.332;2024-03-07T11:51:34;10.98;75.39
68842;SHT35;55849;48.482;2.332;2024-03-07T11:54:36;11.10;75.15
68842;SHT35;55849;48.482;2.332;2024-03-07T11:57:38;11.23;74.77
68842;SHT35;55849;48.482;2.332;2024-03-07T12:00:41;11.38;74.42
68842;SHT35;55849;48.482;2.332;2024-03-07T12:03:46;11.53;74.19
68842;SHT35;55849;48.482;2.332;2024-03-07T12:06:52;11.67;73.33
68842;SHT35;55849;48.482;2.332;2024-03-07T12:09:54;11.84;73.39
68842;SHT35;55849;48.482;2.332;2024-03-07T12:12:56;11.98;72.97
68842;SHT35;55849;48.482;2.332;2024-03-07T12:15:57;12.12;73.12
68842;SHT35;55849;48.482;2.332;2024-03-07T12:19:01;12.29;73.14
68842;SHT35;55849;48.482;2.332;2024-03-07T12:22:08;12.46;71.98
68842;SHT35;55849;48.482;2.332;2024-03-07T12:25:12;12.60;71.68
68842;SHT35;55849;48.482;2.332;2024-03-07T12:28:21;12.77;71.07
68842;SHT35;55849;48.482;2.332;2024-03-07T12:31:25;12.89;70.19
68842;SHT35;55849;48.482;2.332;2024-03-07T12:34:28;13.06;69.21
68842;SHT35;55849;48.482;2.332;2024-03-07T12:37:35;13.20;69.81
68842;SHT35;55849;48.482;2.332;2024-03-07T12:40:36;13.39;69.07
68842;SHT35;55849;48.482;2.332;2024-03-07T12:43:39;13.57;67.99
68842;SHT35;55849;48.482;2.332;2024-03-07T12:46:42;13.82;67.63
68842;SHT35;55849;48.482;2.332;2024-03-07T12:49:46;14.05;67.19
68842;SHT35;55849;48.482;2.332;2024-03-07T12:52:48;14.24;66.15
68842;SHT35;55849;48.482;2.332;2024-03-07T12:55:51;14.48;65.95
68842;SHT35;55849;48.482;2.332;2024-03-07T12:58:52;14.69;65.86
68842;SHT35;55849;48.482;2.332;2024-03-07T13:01:55;14.95;64.23
68842;SHT35;55849;48.482;2.332;2024-03-07T13:04:58;15.20;63.50
68842;SHT35;55849;48.482;2.332;2024-03-07T13:08:00;15.45;63.49
68842;SHT35;55849;48.482;2.332;2024-03-07T13:11:02;15.72;63.47
68842;SHT35;55849;48.482;2.332;2024-03-07T13:14:03;15.97;62.98
68842;SHT35;55849;48.482;2.332;2024-03-07T13:17:06;16.24;63.11
68842;SHT35;55849;48.482;2.332;2024-03-07T13:20:11;16.51;62.20
68842;SHT35;55849;48.482;2.332;2024-03-07T13:23:14;16.77;61.55
68842;SHT35;55849;48.482;2.332;2024-03-07T13:26:20;17.04;59.70
68842;SHT35;55849;48.482;2.332;2024-03-07T13:29:24;17.20;59.91
68842;SHT35;55849;48.482;2.332;2024-03-07T13:32:26;17.32;59.04
68842;SHT35;55849;48.482;2.332;2024-03-07T13:35:30;17.43;59.36
68842;SHT35;55849;48.482;2.332;2024-03-07T13:38:32;17.66;59.18
68842;SHT35;55849;48.482;2.332;2024-03-07T13:41:33;17.94;59.14
68842;SHT35;55849;48.482;2.332;2024-03-07T13:44:35;18.18;58.45
68842;SHT35;55849;48.482;2.332;2024-03-07T13:47:38;18.42;58.81
68842;SHT35;55849;48.482;2.332;2024-03-07T13:50:42;18.73;57.87
68842;SHT35;55849;48.482;2.332;2024-03-07T13:53:45;19.02;57.38
68842;SHT35;55849;48.482;2.332;2024-03-07T13:56:55;19.28;56.28
68842;SHT35;55849;48.482;2.332;2024-03-07T14:00:18;19.53;55.84
68842;SHT35;55849;48.482;2.332;2024-03-07T14:03:50;19.69;55.40
68842;SHT35;55849;48.482;2.332;2024-03-07T14:07:17;19.80;53.75
68842;SHT35;55849;48.482;2.332;2024-03-07T14:10:42;19.77;53.67
68842;SHT35;55849;48.482;2.332;2024-03-07T14:14:11;19.60;53.36
68842;SHT35;55849;48.482;2.332;2024-03-07T14:17:44;19.43;52.86
68842;SHT35;55849;48.482;2.332;2024-03-07T14:21:14;19.26;53.39
68842;SHT35;55849;48.482;2.332;2024-03-07T14:24:53;19.21;53.68
68842;SHT35;55849;48.482;2.332;2024-03-07T14:28:11;19.30;53.38
68842;SHT35;55849;48.482;2.332;2024-03-07T14:31:13;19.46;53.79
68842;SHT35;55849;48.482;2.332;2024-03-07T14:34:24;19.67;53.23
68842;SHT35;55849;48.482;2.332;2024-03-07T14:37:29;19.88;52.51
68842;SHT35;55849;48.482;2.332;2024-03-07T14:40:34;20.06;52.52
68842;SHT35;55849;48.482;2.332;2024-03-07T14:43:36;20.21;52.01
68842;SHT35;55849;48.482;2.332;2024-03-07T14:46:37;20.26;51.60
68842;SHT35;55849;48.482;2.332;2024-03-07T14:49:39;20.26;51.29
68842;SHT35;55849;48.482;2.332;2024-03-07T14:52:40;20.22;51.50
68842;SHT35;55849;48.482;2.332;2024-03-07T14:55:44;20.13;51.35
68842;SHT35;55849;48.482;2.332;2024-03-07T14:58:46;19.98;51.45
68842;SHT35;55849;48.482;2.332;2024-03-07T15:01:47;19.73;51.71
68842;SHT35;55849;48.482;2.332;2024-03-07T15:04:50;19.52;51.43
68842;SHT35;55849;48.482;2.332;2024-03-07T15:07:53;19.26;51.87
68842;SHT35;55849;48.482;2.332;2024-03-07T15:11:02;18.95;51.74
68842;SHT35;55849;48.482;2.332;2024-03-07T15:14:09;18.64;52.37
68842;SHT35;55849;48.482;2.332;2024-03-07T15:17:10;18.33;52.16
68842;SHT35;55849;48.482;2.332;2024-03-07T15:20:13;18.09;53.11
68842;SHT35;55849;48.482;2.332;2024-03-07T15:23:22;17.89;53.67
68842;SHT35;55849;48.482;2.332;2024-03-07T15:26:25;17.70;53.89
68842;SHT35;55849;48.482;2.332;2024-03-07T15:29:27;17.50;53.84
68842;SHT35;55849;48.482;2.332;2024-03-07T15:32:28;17.34;54.01
68842;SHT35;55849;48.482;2.332;2024-03-07T15:35:31;17.14;54.32
68842;SHT35;55849;48.482;2.332;2024-03-07T15:38:33;16.96;54.75
68842;SHT35;55849;48.482;2.332;2024-03-07T15:41:39;16.80;55.35
68842;SHT35;55849;48.482;2.332;2024-03-07T15:44:41;16.68;55.59
68842;SHT35;55849;48.482;2.332;2024-03-07T15:47:46;16.58;55.42
68842;SHT35;55849;48.482;2.332;2024-03-07T15:50:50;16.59;56.59
68842;SHT35;55849;48.482;2.332;2024-03-07T15:53:52;16.81;56.82
68842;SHT35;55849;48.482;2.332;2024-03-07T15:56:55;17.06;55.91
68842;SHT35;55849;48.482;2.332;2024-03-07T15:59:57;17.28;55.63
68842;SHT35;55849;48.482;2.332;2024-03-07T16:03:00;17.43;54.93
68842;SHT35;55849;48.482;2.332;2024-03-07T16:06:04;17.63;54.12
68842;SHT35;55849;48.482;2.332;2024-03-07T16:09:07;17.79;54.62
68842;SHT35;55849;48.482;2.332;2024-03-07T16:12:10;17.93;54.10
68842;SHT35;55849;48.482;2.332;2024-03-07T16:15:12;18.00;53.89
68842;SHT35;55849;48.482;2.332;2024-03-07T16:18:14;18.01;53.38
68842;SHT35;55849;48.482;2.332;2024-03-07T16:21:15;17.84;53.62
68842;SHT35;55849;48.482;2.332;2024-03-07T16:24:17;17.66;53.88
68842;SHT35;55849;48.482;2.332;2024-03-07T16:27:20;17.46;53.72
68842;SHT35;55849;48.482;2.332;2024-03-07T16:30:23;17.25;54.22
68842;SHT35;55849;48.482;2.332;2024-03-07T16:33:24;17.03;54.53
68842;SHT35;55849;48.482;2.332;2024-03-07T16:36:28;16.83;54.93
68842;SHT35;55849;48.482;2.332;2024-03-07T16:39:29;16.63;55.05
68842;SHT35;55849;48.482;2.332;2024-03-07T16:42:37;16.45;55.37
68842;SHT35;55849;48.482;2.332;2024-03-07T16:45:40;16.27;56.74
68842;SHT35;55849;48.482;2.332;2024-03-07T16:48:42;16.16;57.15
68842;SHT35;55849;48.482;2.332;2024-03-07T16:51:44;16.00;57.66
68842;SHT35;55849;48.482;2.332;2024-03-07T16:54:45;15.89;57.83
68842;SHT35;55849;48.482;2.332;2024-03-07T16:57:50;15.78;58.19
68842;SHT35;55849;48.482;2.332;2024-03-07T17:00:52;15.68;58.36
68842;SHT35;55849;48.482;2.332;2024-03-07T17:03:55;15.55;58.14
68842;SHT35;55849;48.482;2.332;2024-03-07T17:06:57;15.45;58.59
68842;SHT35;55849;48.482;2.332;2024-03-07T17:09:58;15.35;58.92
68842;SHT35;55849;48.482;2.332;2024-03-07T17:13:02;15.24;58.65
68842;SHT35;55849;48.482;2.332;2024-03-07T17:16:07;15.10;59.23
68842;SHT35;55849;48.482;2.332;2024-03-07T17:19:09;14.99;59.43
68842;SHT35;55849;48.482;2.332;2024-03-07T17:22:11;14.88;60.11
68842;SHT35;55849;48.482;2.332;2024-03-07T17:25:12;14.76;59.54
68842;SHT35;55849;48.482;2.332;2024-03-07T17:28:18;14.65;59.90
68842;SHT35;55849;48.482;2.332;2024-03-07T17:31:20;14.52;60.04
68842;SHT35;55849;48.482;2.332;2024-03-07T17:34:23;14.42;60.05
68842;SHT35;55849;48.482;2.332;2024-03-07T17:37:25;14.30;60.72
68842;SHT35;55849;48.482;2.332;2024-03-07T17:40:27;14.17;61.08
68842;SHT35;55849;48.482;2.332;2024-03-07T17:43:32;14.06;60.71
68842;SHT35;55849;48.482;2.332;2024-03-07T17:46:33;13.96;60.47
68842;SHT35;55849;48.482;2.332;2024-03-07T17:49:37;13.83;60.88
68842;SHT35;55849;48.482;2.332;2024-03-07T17:52:40;13.70;60.90
68842;SHT35;55849;48.482;2.332;2024-03-07T17:55:41;13.62;61.38
68842;SHT35;55849;48.482;2.332;2024-03-07T17:58:45;13.50;60.81
68842;SHT35;55849;48.482;2.332;2024-03-07T18:01:46;13.40;60.95
68842;SHT35;55849;48.482;2.332;2024-03-07T18:04:48;13.35;61.59
68842;SHT35;55849;48.482;2.332;2024-03-07T18:07:50;13.24;61.88
68842;SHT35;55849;48.482;2.332;2024-03-07T18:10:52;13.16;62.00
68842;SHT35;55849;48.482;2.332;2024-03-07T18:13:55;13.12;62.83
68842;SHT35;55849;48.482;2.332;2024-03-07T18:16:57;13.05;63.00
68842;SHT35;55849;48.482;2.332;2024-03-07T18:20:05;13.01;63.34
68842;SHT35;55849;48.482;2.332;2024-03-07T18:23:09;12.99;64.13
68842;SHT35;55849;48.482;2.332;2024-03-07T18:26:11;12.98;63.96
68842;SHT35;55849;48.482;2.332;2024-03-07T18:29:15;12.96;63.85
68842;SHT35;55849;48.482;2.332;2024-03-07T18:32:17;12.95;64.43
68842;SHT35;55849;48.482;2.332;2024-03-07T18:35:18;12.92;64.02
68842;SHT35;55849;48.482;2.332;2024-03-07T18:38:23;12.88;64.23
68842;SHT35;55849;48.482;2.332;2024-03-07T18:41:26;12.87;63.88
68842;SHT35;55849;48.482;2.332;2024-03-07T18:44:32;12.83;64.73
68842;SHT35;55849;48.482;2.332;2024-03-07T18:47:37;12.80;64.99
68842;SHT35;55849;48.482;2.332;2024-03-07T18:50:41;12.78;65.00
68842;SHT35;55849;48.482;2.332;2024-03-07T18:53:45;12.75;65.07
68842;SHT35;55849;48.482;2.332;2024-03-07T18:56:49;12.75;65.68
68842;SHT35;55849;48.482;2.332;2024-03-07T18:59:54;12.77;65.60
68842;SHT35;55849;48.482;2.332;2024-03-07T19:02:56;12.71;65.52
68842;SHT35;55849;48.482;2.332;2024-03-07T19:05:58;12.71;65.71
68842;SHT35;55849;48.482;2.332;2024-03-07T19:09:00;12.69;65.82
68842;SHT35;55849;48.482;2.332;2024-03-07T19:12:02;12.68;65.93
68842;SHT35;55849;48.482;2.332;2024-03-07T19:15:06;12.67;65.92
68842;SHT35;55849;48.482;2.332;2024-03-07T19:18:10;12.67;65.96
68842;SHT35;55849;48.482;2.332;2024-03-07T19:21:13;12.60;65.47
68842;SHT35;55849;48.482;2.332;2024-03-07T19:24:15;12.61;65.66
68842;SHT35;55849;48.482;2.332;2024-03-07T19:27:19;12.56;65.70
68842;SHT35;55849;48.482;2.332;2024-03-07T19:30:22;12.51;65.96